Time;durP1;ratioP1;P1;durP2;ratioP2;P2;SDS_P1;SDS_P2;PMS_P1;PMS_P2;Temp;Humidity;BMP_temperature;BMP_pressure;BME280_temperature;BME280_humidity;BME280_pressure;Samples;Min_cycle;Max_cycle;Signal;HPM_P1;HPM_P2
2022/11/20 00:01:21;;;;;;;0.98;0.82;;;;;;;;;;5091050;28;20099;-86
2022/11/20 00:03:46;;;;;;;0.40;0.40;;;;;;;;;;5094273;28;20357;-85
2022/11/20 00:06:15;;;;;;;0.75;0.50;;;;;;;;;;5091218;28;20084;-85
2022/11/20 00:08:41;;;;;;;0.40;0.40;;;;;;;;;;5093169;28;20077;-86
2022/11/20 00:11:16;;;;;;;0.80;0.50;;;;;;;;;;5094235;28;20037;-86
2022/11/20 00:13:43;;;;;;;0.68;0.50;;;;;;;;;;5093166;28;20023;-84
2022/11/20 00:16:10;;;;;;;1.23;0.65;;;;;;;;;;5091173;28;20035;-84
2022/11/20 00:18:37;;;;;;;0.68;0.50;;;;;;;;;;5093591;28;20062;-83
2022/11/20 00:21:30;;;;;;;1.17;0.70;;;;;;;;;;5094148;28;20030;-88
2022/11/20 00:23:56;;;;;;;0.35;0.35;;;;;;;;;;5082495;28;20044;-86
2022/11/20 00:26:23;;;;;;;0.90;0.60;;;;;;;;;;5093643;28;20476;-88
2022/11/20 00:28:54;;;;;;;0.90;0.60;;;;;;;;;;5093497;28;20051;-86
2022/11/20 00:31:20;;;;;;;0.57;0.35;;;;;;;;;;5090525;28;20020;-87
2022/11/20 00:33:46;;;;;;;0.43;0.30;;;;;;;;;;5093752;28;20085;-88
2022/11/20 00:36:17;;;;;;;0.45;0.38;;;;;;;;;;5092175;28;20028;-86
2022/11/20 00:38:44;;;;;;;0.20;0.20;;;;;;;;;;5091629;28;20380;-89
2022/11/20 00:41:11;;;;;;;0.30;0.30;;;;;;;;;;5092307;28;20464;-86
2022/11/20 00:43:37;;;;;;;0.47;0.38;;;;;;;;;;5090529;28;20388;-86
2022/11/20 00:46:09;;;;;;;1.00;0.35;;;;;;;;;;5090714;28;20404;-84
2022/11/20 00:48:35;;;;;;;0.50;0.25;;;;;;;;;;5092683;28;20048;-85
2022/11/20 00:51:00;;;;;;;0.73;0.63;;;;;;;;;;5091627;28;20141;-88
2022/11/20 00:53:33;;;;;;;1.45;0.47;;;;;;;;;;5089310;28;20490;-85
2022/11/20 00:56:01;;;;;;;0.43;0.25;;;;;;;;;;5091713;28;20031;-85
2022/11/20 00:58:32;;;;;;;0.57;0.52;;;;;;;;;;5091218;28;20059;-85
2022/11/20 01:01:12;;;;;;;0.98;0.70;;;;;;;;;;5091511;28;20499;-84
2022/11/20 01:03:43;;;;;;;6.57;1.35;;;;;;;;;;5091998;28;20019;-83
2022/11/20 01:06:11;;;;;;;0.30;0.20;;;;;;;;;;5090911;28;20020;-89
2022/11/20 01:08:37;;;;;;;0.20;0.20;;;;;;;;;;5091794;28;20119;-85
2022/11/20 01:11:05;;;;;;;1.73;0.55;;;;;;;;;;5090047;28;20115;-85
2022/11/20 01:13:36;;;;;;;0.73;0.60;;;;;;;;;;5091598;28;20036;-85
2022/11/20 01:16:33;;;;;;;0.25;0.25;;;;;;;;;;5091011;28;20483;-86
2022/11/20 01:19:01;;;;;;;0.30;0.20;;;;;;;;;;5089556;28;20036;-87
2022/11/20 01:21:31;;;;;;;0.20;0.20;;;;;;;;;;5091381;28;20046;-85
2022/11/20 01:23:58;;;;;;;0.30;0.22;;;;;;;;;;5087488;28;20395;-87
2022/11/20 01:26:29;;;;;;;0.10;0.10;;;;;;;;;;5091149;28;20100;-87
2022/11/20 01:28:56;;;;;;;1.45;0.40;;;;;;;;;;5091879;28;20027;-88
2022/11/20 01:31:28;;;;;;;1.02;0.65;;;;;;;;;;5091399;28;20024;-84
2022/11/20 01:33:57;;;;;;;0.13;0.13;;;;;;;;;;5089921;28;20443;-85
2022/11/20 01:36:24;;;;;;;1.42;0.50;;;;;;;;;;5091271;28;20387;-85
2022/11/20 01:38:55;;;;;;;0.17;0.17;;;;;;;;;;5089270;28;20027;-85
2022/11/20 01:44:14;;;;;;;0.17;0.17;;;;;;;;;;5091705;28;20089;-84
2022/11/20 01:46:47;;;;;;;0.43;0.25;;;;;;;;;;5092308;28;20044;-83
2022/11/20 01:49:21;;;;;;;0.60;0.20;;;;;;;;;;5093252;28;20089;-85
2022/11/20 01:52:07;;;;;;;1.58;0.40;;;;;;;;;;5091521;28;20051;-84
2022/11/20 01:54:40;;;;;;;0.10;0.10;;;;;;;;;;5089599;28;20028;-84
2022/11/20 01:57:10;;;;;;;1.83;0.55;;;;;;;;;;5090051;28;20076;-86
2022/11/20 01:59:54;;;;;;;0.45;0.30;;;;;;;;;;5090778;28;20081;-85
2022/11/20 02:02:21;;;;;;;0.35;0.20;;;;;;;;;;5089404;28;20039;-84
2022/11/20 02:04:49;;;;;;;0.32;0.30;;;;;;;;;;5090459;28;20028;-85
2022/11/20 02:07:14;;;;;;;0.40;0.35;;;;;;;;;;5091642;28;20031;-85
2022/11/20 02:09:40;;;;;;;0.47;0.28;;;;;;;;;;5089460;28;20028;-84
2022/11/20 02:13:42;;;;;;;0.65;0.30;;;;;;;;;;5087932;28;20028;-84
2022/11/20 02:14:50;;;;;;;0.50;0.40;;;;;;;;;;5089790;28;20293;-86
2022/11/20 02:17:16;;;;;;;0.25;0.20;;;;;;;;;;5091982;28;20120;-83
2022/11/20 02:19:41;;;;;;;0.13;0.13;;;;;;;;;;5091884;28;20035;-84
2022/11/20 02:22:26;;;;;;;0.30;0.10;;;;;;;;;;5091791;28;20460;-84
2022/11/20 02:24:52;;;;;;;0.10;0.10;;;;;;;;;;5089307;28;20039;-84
2022/11/20 02:27:18;;;;;;;0.32;0.30;;;;;;;;;;5092022;28;20032;-85
2022/11/20 02:29:52;;;;;;;0.30;0.30;;;;;;;;;;5093067;28;20039;-85
2022/11/20 02:32:25;;;;;;;0.32;0.32;;;;;;;;;;5091581;28;20020;-85
2022/11/20 02:34:51;;;;;;;0.10;0.03;;;;;;;;;;5088187;28;20391;-86
2022/11/20 02:37:17;;;;;;;0.52;0.40;;;;;;;;;;5091173;28;20035;-84
2022/11/20 02:39:45;;;;;;;3.15;0.30;;;;;;;;;;5090511;28;20020;-86
2022/11/20 02:42:11;;;;;;;0.43;0.40;;;;;;;;;;5092712;28;20490;-86
2022/11/20 02:44:37;;;;;;;0.38;0.38;;;;;;;;;;5091771;28;20028;-85
2022/11/20 02:47:02;;;;;;;0.47;0.30;;;;;;;;;;5090603;28;20024;-89
2022/11/20 02:49:28;;;;;;;0.80;0.63;;;;;;;;;;5089155;28;20051;-82
2022/11/20 02:51:53;;;;;;;0.30;0.30;;;;;;;;;;5091600;28;20471;-85
2022/11/20 02:54:19;;;;;;;0.68;0.43;;;;;;;;;;5091926;28;20024;-83
2022/11/20 02:56:44;;;;;;;2.17;0.55;;;;;;;;;;5092167;28;20086;-87
2022/11/20 02:59:10;;;;;;;0.88;0.55;;;;;;;;;;5092053;28;20260;-83
2022/11/20 03:01:35;;;;;;;0.30;0.30;;;;;;;;;;5092582;28;20023;-85
2022/11/20 03:04:01;;;;;;;0.20;0.13;;;;;;;;;;5093154;28;20532;-84
2022/11/20 03:06:26;;;;;;;0.28;0.28;;;;;;;;;;5090788;28;20384;-84
2022/11/20 03:08:52;;;;;;;0.30;0.30;;;;;;;;;;5091170;28;20059;-84
2022/11/20 03:11:17;;;;;;;0.60;0.47;;;;;;;;;;5091712;28;20028;-84
2022/11/20 03:13:43;;;;;;;0.28;0.28;;;;;;;;;;5095147;28;20024;-84
2022/11/20 03:16:14;;;;;;;0.30;0.30;;;;;;;;;;5096169;28;20027;-87
2022/11/20 03:18:41;;;;;;;4.35;0.40;;;;;;;;;;5095375;28;20024;-85
2022/11/20 03:21:10;;;;;;;0.55;0.43;;;;;;;;;;5078945;28;20024;-84
2022/11/20 03:23:39;;;;;;;0.73;0.40;;;;;;;;;;5094441;28;20024;-85
2022/11/20 03:26:09;;;;;;;1.27;1.05;;;;;;;;;;5096188;28;20452;-84
2022/11/20 03:28:34;;;;;;;0.40;0.40;;;;;;;;;;5094546;28;20036;-84
2022/11/20 03:31:09;;;;;;;0.50;0.38;;;;;;;;;;5094391;28;20089;-87
2022/11/20 03:33:34;;;;;;;0.63;0.30;;;;;;;;;;5092118;28;20027;-87
2022/11/20 03:36:08;;;;;;;0.73;0.20;;;;;;;;;;5093091;28;20034;-85
2022/11/20 03:38:34;;;;;;;0.90;0.50;;;;;;;;;;5093797;28;20375;-83
2022/11/20 03:41:05;;;;;;;0.98;0.32;;;;;;;;;;5093740;28;20032;-84
2022/11/20 03:43:31;;;;;;;0.25;0.25;;;;;;;;;;5091690;28;20383;-85
2022/11/20 03:45:57;;;;;;;0.30;0.20;;;;;;;;;;5096219;28;20047;-84
2022/11/20 03:48:23;;;;;;;0.45;0.40;;;;;;;;;;5095527;28;20158;-84
2022/11/20 03:51:12;;;;;;;0.30;0.30;;;;;;;;;;5092692;28;20376;-87
2022/11/20 03:53:38;;;;;;;0.37;0.10;;;;;;;;;;5089106;28;20036;-86
2022/11/20 03:56:04;;;;;;;3.60;0.47;;;;;;;;;;5094466;28;20276;-84
2022/11/20 03:58:30;;;;;;;0.10;0.10;;;;;;;;;;5095855;28;20381;-87
2022/11/20 04:00:55;;;;;;;0.50;0.40;;;;;;;;;;5092373;28;20035;-85
2022/11/20 04:03:21;;;;;;;0.20;0.20;;;;;;;;;;5095459;28;20048;-84
2022/11/20 04:05:46;;;;;;;0.30;0.30;;;;;;;;;;5095550;28;20031;-84
2022/11/20 04:08:12;;;;;;;0.80;0.43;;;;;;;;;;5094637;28;20021;-84
2022/11/20 04:10:37;;;;;;;0.28;0.28;;;;;;;;;;5094041;28;20043;-84
2022/11/20 04:13:10;;;;;;;0.30;0.20;;;;;;;;;;5094988;28;20027;-87
2022/11/20 04:15:35;;;;;;;0.22;0.10;;;;;;;;;;5094248;28;20541;-85
2022/11/20 04:18:01;;;;;;;0.57;0.40;;;;;;;;;;5092098;28;20023;-87
2022/11/20 04:20:26;;;;;;;0.10;0.10;;;;;;;;;;5092920;28;20020;-88
2022/11/20 04:22:54;;;;;;;0.30;0.20;;;;;;;;;;5094482;28;20024;-86
2022/11/20 04:25:19;;;;;;;0.65;0.60;;;;;;;;;;5093041;28;20531;-84
2022/11/20 04:27:45;;;;;;;0.20;0.20;;;;;;;;;;5092548;28;20154;-83
2022/11/20 04:30:11;;;;;;;0.20;0.20;;;;;;;;;;5092966;28;20028;-85
2022/11/20 04:32:36;;;;;;;0.15;0.15;;;;;;;;;;5092320;28;20023;-87
2022/11/20 04:35:02;;;;;;;0.88;0.40;;;;;;;;;;5091948;28;20035;-84
2022/11/20 04:37:27;;;;;;;0.43;0.32;;;;;;;;;;5093571;28;20023;-85
2022/11/20 04:39:52;;;;;;;0.98;0.50;;;;;;;;;;5093378;28;20020;-85
2022/11/20 04:42:30;;;;;;;0.73;0.40;;;;;;;;;;5093233;28;20375;-85
2022/11/20 04:44:55;;;;;;;1.85;0.60;;;;;;;;;;5092354;28;20044;-83
2022/11/20 04:47:21;;;;;;;0.32;0.30;;;;;;;;;;5094915;28;20055;-83
2022/11/20 04:49:46;;;;;;;2.58;0.60;;;;;;;;;;5093834;28;20032;-83
2022/11/20 04:52:12;;;;;;;0.28;0.28;;;;;;;;;;5095223;28;20020;-82
2022/11/20 04:54:38;;;;;;;0.30;0.30;;;;;;;;;;5092299;28;20048;-83
2022/11/20 04:57:03;;;;;;;1.55;0.35;;;;;;;;;;5094922;28;20056;-83
2022/11/20 04:59:29;;;;;;;0.30;0.30;;;;;;;;;;5092654;28;20081;-87
2022/11/20 05:01:54;;;;;;;0.25;0.25;;;;;;;;;;5090356;28;20024;-85
2022/11/20 05:04:19;;;;;;;0.38;0.35;;;;;;;;;;5090985;28;20106;-85
2022/11/20 05:06:45;;;;;;;0.43;0.30;;;;;;;;;;5091865;28;20032;-83
2022/11/20 05:09:12;;;;;;;0.47;0.28;;;;;;;;;;5088030;28;20384;-82
2022/11/20 05:11:37;;;;;;;0.45;0.40;;;;;;;;;;5088700;28;20032;-82
2022/11/20 05:14:02;;;;;;;0.60;0.28;;;;;;;;;;5090984;28;20032;-84
2022/11/20 05:16:28;;;;;;;0.30;0.28;;;;;;;;;;5092174;28;20044;-83
2022/11/20 05:18:54;;;;;;;0.43;0.40;;;;;;;;;;5089515;28;20123;-83
2022/11/20 05:21:20;;;;;;;0.30;0.30;;;;;;;;;;5090507;28;20031;-84
2022/11/20 05:23:46;;;;;;;0.05;0.05;;;;;;;;;;5091703;28;20031;-83
2022/11/20 05:26:21;;;;;;;0.55;0.43;;;;;;;;;;5087419;28;20881;-85
2022/11/20 05:28:46;;;;;;;0.20;0.20;;;;;;;;;;5091578;28;20027;-85
2022/11/20 05:31:21;;;;;;;1.08;0.40;;;;;;;;;;5090577;28;20057;-84
2022/11/20 05:33:46;;;;;;;3.97;0.38;;;;;;;;;;5090395;28;20440;-86
2022/11/20 05:36:14;;;;;;;0.32;0.32;;;;;;;;;;5088437;28;20051;-86
2022/11/20 05:38:40;;;;;;;0.20;0.20;;;;;;;;;;5090653;28;20099;-85
2022/11/20 05:41:07;;;;;;;0.70;0.50;;;;;;;;;;5092084;28;20560;-86
2022/11/20 05:43:34;;;;;;;1.63;0.35;;;;;;;;;;5089126;28;20031;-85
2022/11/20 05:46:00;;;;;;;0.20;0.20;;;;;;;;;;5091616;28;20507;-84
2022/11/20 05:48:25;;;;;;;0.65;0.38;;;;;;;;;;5091251;28;20063;-83
2022/11/20 05:50:50;;;;;;;2.40;0.70;;;;;;;;;;5088512;28;20115;-84
2022/11/20 05:53:16;;;;;;;1.27;0.47;;;;;;;;;;5090023;28;20030;-86
2022/11/20 05:55:42;;;;;;;2.20;0.75;;;;;;;;;;5090132;28;20028;-87
2022/11/20 05:58:07;;;;;;;0.63;0.40;;;;;;;;;;5091213;28;20507;-84
2022/11/20 06:00:32;;;;;;;0.93;0.52;;;;;;;;;;5091073;28;20061;-83
2022/11/20 06:02:58;;;;;;;0.30;0.30;;;;;;;;;;5091996;28;20031;-83
2022/11/20 06:05:23;;;;;;;0.15;0.15;;;;;;;;;;5091679;28;20024;-83
2022/11/20 06:07:48;;;;;;;1.80;0.45;;;;;;;;;;5086846;28;20035;-85
2022/11/20 06:10:14;;;;;;;0.15;0.15;;;;;;;;;;5091313;28;20024;-84
2022/11/20 06:12:39;;;;;;;0.70;0.32;;;;;;;;;;5088520;28;20546;-85
2022/11/20 06:15:06;;;;;;;1.38;0.28;;;;;;;;;;5091247;28;20024;-85
2022/11/20 06:17:40;;;;;;;0.60;0.45;;;;;;;;;;5092895;28;20098;-85
2022/11/20 06:20:06;;;;;;;1.05;0.60;;;;;;;;;;5091515;28;20132;-84
2022/11/20 06:22:32;;;;;;;0.82;0.40;;;;;;;;;;5090600;28;20074;-87
2022/11/20 06:24:57;;;;;;;0.13;0.13;;;;;;;;;;5089627;28;20110;-86
2022/11/20 06:27:23;;;;;;;0.20;0.20;;;;;;;;;;5089922;28;20024;-85
2022/11/20 06:29:48;;;;;;;0.93;0.25;;;;;;;;;;5090232;28;20023;-85
2022/11/20 06:32:13;;;;;;;1.17;0.57;;;;;;;;;;5090325;28;20020;-85
2022/11/20 06:34:39;;;;;;;0.20;0.20;;;;;;;;;;5090402;28;20440;-84
2022/11/20 06:37:04;;;;;;;0.10;0.03;;;;;;;;;;5088895;28;20020;-86
2022/11/20 06:39:30;;;;;;;0.22;0.20;;;;;;;;;;5089246;28;20103;-82
2022/11/20 06:41:55;;;;;;;0.20;0.20;;;;;;;;;;5087531;28;20032;-85
2022/11/20 06:44:20;;;;;;;0.10;0.10;;;;;;;;;;5087038;28;20024;-82
2022/11/20 06:46:46;;;;;;;1.83;0.43;;;;;;;;;;5093075;28;20391;-85
2022/11/20 06:49:11;;;;;;;0.20;0.10;;;;;;;;;;5095480;28;20031;-85
2022/11/20 06:51:37;;;;;;;0.25;0.25;;;;;;;;;;5093719;28;20380;-85
2022/11/20 06:54:02;;;;;;;0.73;0.30;;;;;;;;;;5094124;28;20056;-84
2022/11/20 06:56:28;;;;;;;1.77;0.30;;;;;;;;;;5095391;28;20055;-83
2022/11/20 06:58:53;;;;;;;1.77;0.55;;;;;;;;;;5095092;28;20074;-85
2022/11/20 07:01:19;;;;;;;0.25;0.25;;;;;;;;;;5094282;28;20555;-84
2022/11/20 07:03:44;;;;;;;0.10;0.10;;;;;;;;;;5094609;28;20020;-83
2022/11/20 07:06:10;;;;;;;0.38;0.20;;;;;;;;;;5094512;28;20016;-84
2022/11/20 07:08:36;;;;;;;0.20;0.20;;;;;;;;;;5094950;28;20468;-88
2022/11/20 07:11:04;;;;;;;0.65;0.25;;;;;;;;;;5093652;28;20027;-84
2022/11/20 07:13:31;;;;;;;1.53;0.40;;;;;;;;;;5094408;28;20095;-83
2022/11/20 07:16:05;;;;;;;2.72;0.40;;;;;;;;;;5093746;28;20028;-85
2022/11/20 07:18:30;;;;;;;0.10;0.10;;;;;;;;;;5093249;28;20442;-84
2022/11/20 07:20:56;;;;;;;3.13;0.65;;;;;;;;;;5093116;28;20107;-85
2022/11/20 07:23:21;;;;;;;0.20;0.20;;;;;;;;;;5091840;28;20157;-84
2022/11/20 07:25:47;;;;;;;0.10;0.10;;;;;;;;;;5093171;28;20396;-86
2022/11/20 07:31:37;;;;;;;5.15;0.40;;;;;;;;;;5093691;28;20051;-83
2022/11/20 07:34:19;;;;;;;3.55;0.82;;;;;;;;;;5091904;28;20032;-84
2022/11/20 07:37:40;;;;;;;0.70;0.30;;;;;;;;;;5090467;28;20032;-83
2022/11/20 07:44:03;;;;;;;0.60;0.60;;;;;;;;;;4992801;28;20077;-85
2022/11/20 07:50:13;;;;;;;0.30;0.05;;;;;;;;;;5003224;28;20225;-86
2022/11/20 07:53:21;;;;;;;0.75;0.20;;;;;;;;;;5084070;28;20036;-85
2022/11/20 07:56:19;;;;;;;0.30;0.25;;;;;;;;;;5064585;28;20036;-85
2022/11/20 08:03:00;;;;;;;0.35;0.35;;;;;;;;;;5063813;28;20062;-85
2022/11/20 08:05:26;;;;;;;0.73;0.65;;;;;;;;;;5089914;28;20038;-87
2022/11/20 08:08:07;;;;;;;3.72;0.80;;;;;;;;;;5092093;28;20036;-89
2022/11/20 08:10:33;;;;;;;1.67;0.80;;;;;;;;;;5090577;28;20472;-84
2022/11/20 08:15:58;;;;;;;0.70;0.45;;;;;;;;;;5093485;28;20471;-85
2022/11/20 08:18:36;;;;;;;0.82;0.40;;;;;;;;;;5088336;28;20100;-84
2022/11/20 08:21:09;;;;;;;2.72;0.60;;;;;;;;;;5092360;28;20024;-83
2022/11/20 08:24:14;;;;;;;2.92;0.40;;;;;;;;;;5091062;28;20451;-89
2022/11/20 08:31:23;;;;;;;;;;;;;;;;;;;;;
2022/11/20 08:34:38;;;;;;;;;;;;;;;;;;;;;
2022/11/20 08:44:34;;;;;;;;;;;;;;;;;;;;;
2022/11/20 08:47:43;;;;;;;1.75;0.57;;;;;;;;;;5063500;28;20070;-86
2022/11/20 08:50:10;;;;;;;0.30;0.30;;;;;;;;;;5089223;28;20040;-84
2022/11/20 08:52:36;;;;;;;1.10;0.38;;;;;;;;;;5093523;28;20059;-84
2022/11/20 08:55:30;;;;;;;3.88;1.60;;;;;;;;;;5088846;28;20043;-84
2022/11/20 08:57:56;;;;;;;3.92;1.00;;;;;;;;;;5083921;28;20075;-84
2022/11/20 09:00:30;;;;;;;0.70;0.70;;;;;;;;;;5090247;28;20060;-87
2022/11/20 09:03:27;;;;;;;;;;;;;;;;;;;;;
2022/11/20 09:06:03;;;;;;;1.00;0.90;;;;;;;;;;5088817;28;20039;-87
2022/11/20 09:12:08;;;;;;;2.08;1.13;;;;;;;;;;5092465;28;20050;-87
2022/11/20 09:15:34;;;;;;;0.35;0.30;;;;;;;;;;5122044;27;20024;-86
2022/11/20 09:21:12;;;;;;;1.38;1.05;;;;;;;;;;5029046;28;20041;-82
2022/11/20 09:30:14;;;;;;;0.30;0.30;;;;;;;;;;4960889;28;20031;-86
2022/11/20 09:32:42;;;;;;;0.93;0.60;;;;;;;;;;5053304;28;20823;-86
2022/11/20 09:35:08;;;;;;;0.82;0.80;;;;;;;;;;5088726;28;20020;-88
2022/11/20 09:37:34;;;;;;;0.63;0.55;;;;;;;;;;5091444;28;20069;-88
2022/11/20 09:40:28;;;;;;;4.18;2.97;;;;;;;;;;5089077;28;20032;-89
2022/11/20 09:42:59;;;;;;;4.13;1.77;;;;;;;;;;5082314;28;20047;-87
2022/11/20 09:45:37;;;;;;;5.20;3.38;;;;;;;;;;5087096;28;20048;-89
2022/11/20 09:48:26;;;;;;;4.32;2.72;;;;;;;;;;5090037;28;20038;-86
2022/11/20 09:51:00;;;;;;;3.17;2.00;;;;;;;;;;5087866;28;20039;-87
2022/11/20 09:53:58;;;;;;;2.42;1.48;;;;;;;;;;5089863;28;20154;-85
2022/11/20 09:56:23;;;;;;;1.20;0.82;;;;;;;;;;5086799;28;20020;-85
2022/11/20 09:58:51;;;;;;;1.40;0.90;;;;;;;;;;5087810;28;20028;-86
2022/11/20 10:01:36;;;;;;;4.38;1.20;;;;;;;;;;5090482;28;20525;-86
2022/11/20 10:04:04;;;;;;;2.40;1.20;;;;;;;;;;5091004;28;20032;-84
2022/11/20 10:06:37;;;;;;;1.25;0.88;;;;;;;;;;5088329;28;20020;-83
2022/11/20 10:09:30;;;;;;;1.67;1.08;;;;;;;;;;5085459;28;20043;-84
2022/11/20 10:12:18;;;;;;;3.47;1.33;;;;;;;;;;5090591;28;20025;-83
2022/11/20 10:14:55;;;;;;;2.78;1.63;;;;;;;;;;5086573;28;20031;-83
2022/11/20 10:17:24;;;;;;;2.75;2.13;;;;;;;;;;5091770;28;20027;-84
2022/11/20 10:20:21;;;;;;;5.60;2.72;;;;;;;;;;5091520;28;20027;-84
2022/11/20 10:23:05;;;;;;;2.80;1.42;;;;;;;;;;5093617;28;20505;-86
2022/11/20 10:25:48;;;;;;;1.73;1.10;;;;;;;;;;5093645;28;20023;-84
2022/11/20 10:28:30;;;;;;;1.95;1.10;;;;;;;;;;5095380;28;20024;-84
2022/11/20 10:31:00;;;;;;;3.15;1.55;;;;;;;;;;5094241;28;20093;-84
2022/11/20 10:33:29;;;;;;;3.90;1.33;;;;;;;;;;5095210;28;20031;-85
2022/11/20 10:36:07;;;;;;;1.20;1.05;;;;;;;;;;5095312;28;20034;-85
2022/11/20 10:38:44;;;;;;;2.08;1.05;;;;;;;;;;5092136;28;20024;-84
2022/11/20 10:41:26;;;;;;;1.08;0.88;;;;;;;;;;5093684;28;20042;-84
2022/11/20 10:44:05;;;;;;;0.60;0.60;;;;;;;;;;5093484;28;20024;-84
2022/11/20 10:46:45;;;;;;;1.77;1.17;;;;;;;;;;5093938;28;20555;-84
2022/11/20 10:49:14;;;;;;;3.17;1.35;;;;;;;;;;5093460;28;20031;-82
2022/11/20 10:51:54;;;;;;;2.30;1.40;;;;;;;;;;5093517;28;20035;-85
2022/11/20 10:54:42;;;;;;;1.42;0.98;;;;;;;;;;5090798;28;20059;-82
2022/11/20 10:57:29;;;;;;;1.85;1.10;;;;;;;;;;5093364;28;20467;-82
2022/11/20 10:59:54;;;;;;;4.93;2.63;;;;;;;;;;5093909;28;20032;-84
2022/11/20 11:02:32;;;;;;;3.20;1.77;;;;;;;;;;5092913;28;20050;-88
2022/11/20 11:05:04;;;;;;;2.38;1.60;;;;;;;;;;5095657;28;20036;-88
2022/11/20 11:07:39;;;;;;;1.83;1.20;;;;;;;;;;5094488;28;20019;-88
2022/11/20 11:10:41;;;;;;;7.00;1.58;;;;;;;;;;5091741;28;20092;-87
2022/11/20 11:13:07;;;;;;;7.00;2.30;;;;;;;;;;5059381;28;20043;-86
2022/11/20 11:15:41;;;;;;;1.63;0.93;;;;;;;;;;5092778;28;20119;-85
2022/11/20 11:18:11;;;;;;;1.75;0.73;;;;;;;;;;5090030;28;20031;-85
2022/11/20 11:20:37;;;;;;;0.52;0.30;;;;;;;;;;5087274;28;20024;-86
2022/11/20 11:23:04;;;;;;;0.95;0.60;;;;;;;;;;5093322;28;20424;-85
2022/11/20 11:25:34;;;;;;;0.32;0.28;;;;;;;;;;5093337;28;20026;-86
2022/11/20 11:28:19;;;;;;;2.05;1.30;;;;;;;;;;5091117;28;20400;-85
2022/11/20 11:30:45;;;;;;;0.95;0.50;;;;;;;;;;5092598;28;20032;-87
2022/11/20 11:33:31;;;;;;;1.27;0.38;;;;;;;;;;5093644;28;20031;-85
2022/11/20 11:36:00;;;;;;;0.52;0.25;;;;;;;;;;5090613;28;20028;-87
2022/11/20 11:38:45;;;;;;;0.20;0.10;;;;;;;;;;5093078;28;20024;-86
2022/11/20 11:41:21;;;;;;;0.85;0.28;;;;;;;;;;5092008;28;20373;-84
2022/11/20 11:46:49;;;;;;;1.08;0.32;;;;;;;;;;5090229;28;20120;-86
2022/11/20 11:49:19;;;;;;;0.10;0.10;;;;;;;;;;5126786;27;20028;-85
2022/11/20 11:51:59;;;;;;;0.05;0.05;;;;;;;;;;5090374;28;20032;-83
2022/11/20 11:54:40;;;;;;;;;;;;;;;;;;5092380;28;20077;-83
2022/11/20 11:57:22;;;;;;;0.30;0.30;;;;;;;;;;5094020;28;20371;-87
2022/11/20 12:00:16;;;;;;;0.38;0.20;;;;;;;;;;5090350;28;20078;-88
2022/11/20 12:02:45;;;;;;;0.10;0.10;;;;;;;;;;5092256;28;20031;-85
2022/11/20 12:05:13;;;;;;;0.00;0.00;;;;;;;;;;5092722;28;20077;-83
2022/11/20 12:07:45;;;;;;;0.20;0.20;;;;;;;;;;5092910;28;20020;-87
2022/11/20 12:10:46;;;;;;;0.13;0.10;;;;;;;;;;5092489;28;20103;-86
2022/11/20 12:13:21;;;;;;;0.08;0.08;;;;;;;;;;5091619;28;20032;-85
2022/11/20 12:15:48;;;;;;;0.28;0.28;;;;;;;;;;5088948;28;20089;-88
2022/11/20 12:18:21;;;;;;;0.20;0.20;;;;;;;;;;5092343;28;20020;-87
2022/11/20 12:21:02;;;;;;;0.65;0.38;;;;;;;;;;5093308;28;20097;-86
2022/11/20 12:23:40;;;;;;;0.10;0.10;;;;;;;;;;5092201;28;20109;-85
2022/11/20 12:26:19;;;;;;;0.10;0.10;;;;;;;;;;5091422;28;20467;-86
2022/11/20 12:29:21;;;;;;;0.17;0.17;;;;;;;;;;5123578;27;20152;-88
2022/11/20 12:32:10;;;;;;;0.00;0.00;;;;;;;;;;5085919;28;20040;-84
2022/11/20 12:34:57;;;;;;;0.22;0.22;;;;;;;;;;5093562;28;20031;-89
2022/11/20 12:37:57;;;;;;;0.00;0.00;;;;;;;;;;5091973;28;20079;-84
2022/11/20 12:40:53;;;;;;;0.40;0.38;;;;;;;;;;5090777;28;20028;-85
2022/11/20 12:46:37;;;;;;;0.10;0.10;;;;;;;;;;5093318;28;20063;-85
2022/11/20 12:49:15;;;;;;;0.73;0.50;;;;;;;;;;5091360;28;20036;-85
2022/11/20 12:52:14;;;;;;;0.52;0.22;;;;;;;;;;5092807;28;20091;-85
2022/11/20 12:55:02;;;;;;;0.20;0.20;;;;;;;;;;5092550;28;20373;-86
2022/11/20 12:57:50;;;;;;;3.63;1.80;;;;;;;;;;5091214;28;20054;-84
2022/11/20 13:00:21;;;;;;;0.75;0.30;;;;;;;;;;5090334;28;20024;-85
2022/11/20 13:03:07;;;;;;;0.30;0.30;;;;;;;;;;5090538;28;20026;-88
2022/11/20 13:05:39;;;;;;;0.32;0.28;;;;;;;;;;5089805;28;20059;-85
2022/11/20 13:08:14;;;;;;;0.25;0.25;;;;;;;;;;5092638;28;20032;-85
2022/11/20 13:10:51;;;;;;;0.35;0.15;;;;;;;;;;5090756;28;20504;-84
2022/11/20 13:13:25;;;;;;;0.52;0.35;;;;;;;;;;5089255;28;20042;-84
2022/11/20 13:15:55;;;;;;;0.88;0.68;;;;;;;;;;5090800;28;20039;-84
2022/11/20 13:18:21;;;;;;;1.70;0.60;;;;;;;;;;5091792;28;20031;-83
2022/11/20 13:20:47;;;;;;;2.63;0.40;;;;;;;;;;5091448;28;20036;-83
2022/11/20 13:23:27;;;;;;;1.83;0.95;;;;;;;;;;5091747;28;20043;-84
2022/11/20 13:26:14;;;;;;;1.90;1.27;;;;;;;;;;5088822;28;20404;-85
2022/11/20 13:28:40;;;;;;;2.97;1.48;;;;;;;;;;5085886;28;20120;-85
2022/11/20 13:31:25;;;;;;;3.55;1.50;;;;;;;;;;5092469;28;20024;-84
2022/11/20 13:33:55;;;;;;;0.50;0.40;;;;;;;;;;5089012;28;20103;-84
2022/11/20 13:36:24;;;;;;;0.68;0.68;;;;;;;;;;5089031;28;20031;-84
2022/11/20 13:38:52;;;;;;;8.70;5.32;;;;;;;;;;5090311;28;20442;-84
2022/11/20 13:41:33;;;;;;;4.47;1.38;;;;;;;;;;5090248;28;20696;-84
2022/11/20 13:44:20;;;;;;;1.15;0.93;;;;;;;;;;5091637;28;20035;-86
2022/11/20 13:46:46;;;;;;;1.45;1.02;;;;;;;;;;5079716;28;20055;-85
2022/11/20 13:49:40;;;;;;;1.98;1.35;;;;;;;;;;5092163;28;20039;-84
2022/11/20 13:52:43;;;;;;;2.83;1.70;;;;;;;;;;5088672;28;20541;-85
2022/11/20 13:55:38;;;;;;;0.95;0.80;;;;;;;;;;5088709;28;20024;-84
2022/11/20 13:58:23;;;;;;;1.23;0.85;;;;;;;;;;5090894;28;20024;-85
2022/11/20 14:00:56;;;;;;;3.85;1.75;;;;;;;;;;5089898;28;20059;-86
2022/11/20 14:03:23;;;;;;;3.97;2.35;;;;;;;;;;5090220;28;20418;-84
2022/11/20 14:05:53;;;;;;;2.28;1.98;;;;;;;;;;5090623;28;20547;-85
2022/11/20 14:08:30;;;;;;;;;;;;;;;;;;5090091;28;20016;-86
2022/11/20 14:11:14;;;;;;;2.65;2.33;;;;;;;;;;5088188;28;19920;-86
2022/11/20 14:13:39;;;;;;;3.50;2.25;;;;;;;;;;5087801;28;20898;-86
2022/11/20 14:16:05;;;;;;;1.67;1.13;;;;;;;;;;5090157;28;20062;-85
2022/11/20 14:18:30;;;;;;;2.70;1.88;;;;;;;;;;5091018;28;20387;-86
2022/11/20 14:20:56;;;;;;;4.30;2.67;;;;;;;;;;5090843;28;20054;-85
2022/11/20 14:23:28;;;;;;;4.95;2.42;;;;;;;;;;5090020;28;20383;-85
2022/11/20 14:25:54;;;;;;;2.33;1.70;;;;;;;;;;5090335;28;20071;-86
2022/11/20 14:28:26;;;;;;;1.15;0.82;;;;;;;;;;5089810;28;20055;-86
2022/11/20 14:30:51;;;;;;;2.80;1.75;;;;;;;;;;5088136;28;20059;-87
2022/11/20 14:33:19;;;;;;;9.27;5.45;;;;;;;;;;5091443;28;20028;-85
2022/11/20 14:35:50;;;;;;;1.27;1.08;;;;;;;;;;5090837;28;20028;-86
2022/11/20 14:38:19;;;;;;;1.85;0.80;;;;;;;;;;5088819;28;20020;-84
2022/11/20 14:40:45;;;;;;;2.70;1.02;;;;;;;;;;5090974;28;20091;-86
2022/11/20 14:43:27;;;;;;;3.30;1.92;;;;;;;;;;5088034;28;20830;-85
2022/11/20 14:46:02;;;;;;;4.13;2.92;;;;;;;;;;5088307;28;20223;-87
2022/11/20 14:48:40;;;;;;;2.40;1.90;;;;;;;;;;5089860;28;20458;-85
2022/11/20 14:51:11;;;;;;;2.33;1.40;;;;;;;;;;5089988;28;20032;-84
2022/11/20 14:53:37;;;;;;;4.90;2.60;;;;;;;;;;5091107;28;20024;-85
2022/11/20 14:56:02;;;;;;;3.10;2.15;;;;;;;;;;5091655;28;20312;-87
2022/11/20 14:58:31;;;;;;;5.60;2.38;;;;;;;;;;5088143;28;20541;-86
2022/11/20 15:01:12;;;;;;;3.67;2.45;;;;;;;;;;5090161;28;20032;-84
2022/11/20 15:03:41;;;;;;;4.50;2.15;;;;;;;;;;5085634;28;20085;-84
2022/11/20 15:06:10;;;;;;;5.43;2.85;;;;;;;;;;5088553;28;20468;-85
2022/11/20 15:08:35;;;;;;;5.30;3.40;;;;;;;;;;5094086;28;20111;-83
2022/11/20 15:11:01;;;;;;;4.28;2.17;;;;;;;;;;5094007;28;20064;-85
2022/11/20 15:13:34;;;;;;;3.55;1.77;;;;;;;;;;5093019;28;20031;-85
2022/11/20 15:16:01;;;;;;;2.58;1.85;;;;;;;;;;5092182;28;20161;-88
2022/11/20 15:18:36;;;;;;;4.35;2.08;;;;;;;;;;5093215;28;20490;-86
2022/11/20 15:21:04;;;;;;;2.80;1.73;;;;;;;;;;5094833;28;20028;-85
2022/11/20 15:23:29;;;;;;;1.63;1.25;;;;;;;;;;5090846;28;20028;-86
2022/11/20 15:25:56;;;;;;;1.42;1.15;;;;;;;;;;5091997;28;20482;-87
2022/11/20 15:28:26;;;;;;;1.20;0.95;;;;;;;;;;5091246;28;20028;-85
2022/11/20 15:30:52;;;;;;;0.85;0.85;;;;;;;;;;5091965;28;20106;-86
2022/11/20 15:33:18;;;;;;;1.65;0.70;;;;;;;;;;5093679;28;20111;-84
2022/11/20 15:35:44;;;;;;;0.40;0.40;;;;;;;;;;5093197;28;20373;-85
2022/11/20 15:38:10;;;;;;;0.65;0.55;;;;;;;;;;5092816;28;20023;-85
2022/11/20 15:40:36;;;;;;;1.10;0.90;;;;;;;;;;5090591;28;20045;-85
2022/11/20 15:43:05;;;;;;;1.85;1.27;;;;;;;;;;5091706;28;20122;-85
2022/11/20 15:45:45;;;;;;;2.08;1.60;;;;;;;;;;5092544;28;20076;-83
2022/11/20 15:48:31;;;;;;;0.88;0.40;;;;;;;;;;5091593;28;20054;-85
2022/11/20 15:51:09;;;;;;;0.95;0.60;;;;;;;;;;5092258;28;20028;-87
2022/11/20 15:53:35;;;;;;;6.40;3.20;;;;;;;;;;5093151;28;20030;-86
2022/11/20 15:56:01;;;;;;;3.60;1.45;;;;;;;;;;5092121;28;20122;-84
2022/11/20 15:58:26;;;;;;;0.93;0.70;;;;;;;;;;5092456;28;20028;-84
2022/11/20 16:00:52;;;;;;;3.88;2.33;;;;;;;;;;5093625;28;20038;-85
2022/11/20 16:03:18;;;;;;;2.45;1.63;;;;;;;;;;5092258;28;20112;-85
2022/11/20 16:05:43;;;;;;;2.83;1.98;;;;;;;;;;5091877;28;20089;-85
2022/11/20 16:08:09;;;;;;;1.50;1.10;;;;;;;;;;5092554;28;20023;-86
2022/11/20 16:10:35;;;;;;;1.15;1.05;;;;;;;;;;5090953;28;20077;-84